createdAt,value
2023-02-12T00:02:18.864Z,16.40
2023-02-12T00:05:06.806Z,16.40
2023-02-12T00:07:41.953Z,19.00
2023-02-12T00:10:29.787Z,16.70
2023-02-12T00:13:04.024Z,13.30
2023-02-12T00:15:52.045Z,13.70
2023-02-12T00:18:33.993Z,16.20
2023-02-12T00:21:28.918Z,15.00
2023-02-12T00:24:16.799Z,12.60
2023-02-12T00:26:52.925Z,14.50
2023-02-12T00:29:40.810Z,13.40
2023-02-12T00:32:23.622Z,15.80
2023-02-12T00:37:45.926Z,13.90
2023-02-12T00:43:08.939Z,13.20
2023-02-12T00:45:52.199Z,16.50
2023-02-12T00:48:32.902Z,13.10
2023-02-12T00:51:13.999Z,13.10
2023-02-12T00:54:02.775Z,13.60
2023-02-12T00:56:43.750Z,11.80
2023-02-12T00:59:24.915Z,14.20
2023-02-12T01:02:05.772Z,12.60
2023-02-12T01:04:53.801Z,14.70
2023-02-12T01:07:48.048Z,12.40
2023-02-12T01:10:44.359Z,12.10
2023-02-12T01:13:21.490Z,11.40
2023-02-12T01:16:17.857Z,10.50
2023-02-12T01:18:56.089Z,9.70
2023-02-12T01:21:47.769Z,14.80
2023-02-12T01:24:23.294Z,11.80
2023-02-12T01:27:12.289Z,12.60
2023-02-12T01:29:53.998Z,14.10
2023-02-12T01:32:41.792Z,12.30
2023-02-12T01:35:23.777Z,14.60
2023-02-12T01:38:04.909Z,12.70
2023-02-12T01:40:45.961Z,14.90
2023-02-12T01:43:27.109Z,13.20
2023-02-12T01:46:09.014Z,11.20
2023-02-12T01:48:52.898Z,12.70
2023-02-12T01:51:34.968Z,10.40
2023-02-12T01:54:25.836Z,11.80
2023-02-12T01:57:01.380Z,14.90
2023-02-12T01:59:50.972Z,11.00
2023-02-12T02:02:27.234Z,10.80
2023-02-12T02:05:17.978Z,12.20
2023-02-12T02:08:00.962Z,13.40
2023-02-12T02:10:42.038Z,11.30
2023-02-12T02:13:48.807Z,14.10
2023-02-12T02:16:38.792Z,16.90
2023-02-12T02:19:49.957Z,15.20
2023-02-12T02:23:07.767Z,15.10
2023-02-12T02:26:22.072Z,17.60
2023-02-12T02:29:48.956Z,14.60
2023-02-12T02:32:29.879Z,17.70
2023-02-12T02:35:46.980Z,10.20
2023-02-12T02:38:36.879Z,10.60
2023-02-12T02:41:21.759Z,11.30
2023-02-12T02:44:04.098Z,13.00
2023-02-12T02:46:55.991Z,11.40
2023-02-12T02:49:50.902Z,14.30
2023-02-12T02:52:38.948Z,11.50
2023-02-12T02:55:23.085Z,13.50
2023-02-12T02:58:08.744Z,13.40
2023-02-12T03:01:00.798Z,12.50
2023-02-12T03:03:52.686Z,9.50
2023-02-12T03:06:52.737Z,14.60
2023-02-12T03:09:55.955Z,12.70
2023-02-12T03:12:48.079Z,14.30
2023-02-12T03:15:48.751Z,10.50
2023-02-12T03:18:41.863Z,13.70
2023-02-12T03:21:26.894Z,12.00
2023-02-12T03:24:21.942Z,13.40
2023-02-12T03:27:34.956Z,11.20
2023-02-12T03:30:16.953Z,10.50
2023-02-12T03:33:37.762Z,11.60
2023-02-12T03:36:21.876Z,14.90
2023-02-12T03:39:04.738Z,11.50
2023-02-12T03:42:03.761Z,13.00
2023-02-12T03:45:12.946Z,16.20
2023-02-12T03:48:20.747Z,10.70
2023-02-12T03:51:31.750Z,13.20
2023-02-12T03:54:15.740Z,15.30
2023-02-12T03:57:12.943Z,10.80
2023-02-12T03:59:55.849Z,12.90
2023-02-12T04:02:44.735Z,10.70
2023-02-12T04:05:31.093Z,12.90
2023-02-12T04:08:19.946Z,14.90
2023-02-12T04:11:27.925Z,11.40
2023-02-12T04:15:00.942Z,12.50
2023-02-12T04:17:57.725Z,9.40
2023-02-12T04:20:49.145Z,6.70
2023-02-12T04:23:55.924Z,8.40
2023-02-12T04:26:37.942Z,11.90
2023-02-12T04:29:43.930Z,7.30
2023-02-12T04:32:31.286Z,13.30
2023-02-12T04:35:31.727Z,5.40
2023-02-12T04:38:32.080Z,11.10
2023-02-12T04:41:14.761Z,11.10
2023-02-12T04:43:55.864Z,8.00
2023-02-12T04:49:29.928Z,6.80
2023-02-12T04:52:11.950Z,10.50
2023-02-12T04:54:59.734Z,10.70
2023-02-12T04:57:40.728Z,10.40
2023-02-12T05:00:22.854Z,8.40
2023-02-12T05:03:03.723Z,5.90
2023-02-12T05:05:51.942Z,7.20
2023-02-12T05:08:33.737Z,12.20
2023-02-12T05:11:23.733Z,7.50
2023-02-12T05:13:58.351Z,6.00
2023-02-12T05:16:46.916Z,5.40
2023-02-12T05:19:28.921Z,7.00
2023-02-12T05:22:11.039Z,5.50
2023-02-12T05:24:52.931Z,7.20
2023-02-12T05:27:34.047Z,4.60
2023-02-12T05:30:21.913Z,5.20
2023-02-12T05:32:57.124Z,2.70
2023-02-12T05:35:44.909Z,6.70
2023-02-12T05:38:26.811Z,4.30
2023-02-12T05:41:30.719Z,8.00
2023-02-12T05:44:25.821Z,7.40
2023-02-12T05:47:13.939Z,4.80
2023-02-12T05:49:48.828Z,7.50
2023-02-12T05:52:36.704Z,7.20
2023-02-12T05:55:18.713Z,11.50
2023-02-12T05:58:06.924Z,26.60
2023-02-12T06:00:48.913Z,22.50
2023-02-12T06:03:36.842Z,67.10
2023-02-12T06:06:18.796Z,46.70
2023-02-12T06:09:07.700Z,58.40
2023-02-12T06:11:42.840Z,46.60
2023-02-12T06:14:31.975Z,43.80
2023-02-12T06:17:06.851Z,26.00
2023-02-12T06:19:54.708Z,9.80
2023-02-12T06:22:30.027Z,7.00
2023-02-12T06:25:17.706Z,3.40
2023-02-12T06:27:59.758Z,5.00
2023-02-12T06:30:47.920Z,9.10
2023-02-12T06:33:23.243Z,3.30
2023-02-12T06:36:11.716Z,25.30
2023-02-12T06:38:59.700Z,3.70
2023-02-12T06:41:40.897Z,5.50
2023-02-12T06:44:22.070Z,5.60
2023-02-12T06:47:05.766Z,4.00
2023-02-12T06:49:46.936Z,11.80
2023-02-12T06:52:29.762Z,4.00
2023-02-12T06:55:17.722Z,3.00
2023-02-12T06:58:12.912Z,17.60
2023-02-12T07:01:07.966Z,4.10
2023-02-12T07:03:57.850Z,5.50
2023-02-12T07:06:34.828Z,32.50
2023-02-12T07:09:22.905Z,5.10
2023-02-12T07:11:57.834Z,4.70
2023-02-12T07:14:45.725Z,5.60
2023-02-12T07:17:27.700Z,7.00
2023-02-12T07:20:23.692Z,16.70
2023-02-12T07:23:11.702Z,6.70
2023-02-12T07:25:53.983Z,7.90
2023-02-12T07:28:49.704Z,7.60
2023-02-12T07:31:38.710Z,5.50
2023-02-12T07:34:13.871Z,4.20
2023-02-12T07:37:01.709Z,11.40
2023-02-12T07:39:49.699Z,13.10
2023-02-12T07:42:44.686Z,26.80
2023-02-12T07:45:39.748Z,65.10
2023-02-12T07:48:28.701Z,46.10
2023-02-12T07:51:10.701Z,11.30
2023-02-12T07:54:05.736Z,27.90
2023-02-12T07:56:53.727Z,31.70
2023-02-12T07:59:29.083Z,8.80
2023-02-12T08:02:16.828Z,47.10
2023-02-12T08:04:58.808Z,58.80
2023-02-12T08:07:53.801Z,19.60
2023-02-12T08:10:41.723Z,16.90
2023-02-12T08:13:16.807Z,33.40
2023-02-12T08:16:13.735Z,25.60
2023-02-12T08:18:55.807Z,27.30
2023-02-12T08:21:36.713Z,11.20
2023-02-12T08:24:17.830Z,33.70
2023-02-12T08:26:58.737Z,23.80
2023-02-12T08:29:46.805Z,16.60
2023-02-12T08:32:22.210Z,8.90
2023-02-12T08:35:09.731Z,6.80
2023-02-12T08:37:51.168Z,14.80
2023-02-12T08:40:38.738Z,18.10
2023-02-12T08:43:26.735Z,13.80
2023-02-12T08:46:08.900Z,39.70
2023-02-12T08:49:00.728Z,9.90
2023-02-12T08:51:45.910Z,30.50
2023-02-12T08:54:41.681Z,18.80
2023-02-12T08:57:29.667Z,8.00
2023-02-12T09:00:05.106Z,8.80
2023-02-12T09:02:55.693Z,18.30
2023-02-12T09:05:30.819Z,15.40
2023-02-12T09:08:18.682Z,20.70
2023-02-12T09:11:00.770Z,12.20
2023-02-12T09:13:56.763Z,23.60
2023-02-12T09:16:46.716Z,18.30
2023-02-12T09:19:21.843Z,23.30
2023-02-12T09:22:09.898Z,19.10
2023-02-12T09:24:44.847Z,27.30
2023-02-12T09:27:33.178Z,17.40
2023-02-12T09:30:07.798Z,21.60
2023-02-12T09:32:55.893Z,21.40
2023-02-12T09:35:31.022Z,16.60
2023-02-12T09:38:18.684Z,8.00
2023-02-12T09:41:16.558Z,20.40
2023-02-12T09:44:02.105Z,14.30
2023-02-12T09:46:51.116Z,7.10
2023-02-12T09:49:32.653Z,3.60
2023-02-12T09:52:23.811Z,6.90
2023-02-12T09:55:06.682Z,6.70
2023-02-12T09:57:55.689Z,10.90
2023-02-12T10:00:31.992Z,5.90
2023-02-12T10:03:26.832Z,5.70
2023-02-12T10:06:28.727Z,5.70
2023-02-12T10:09:28.886Z,6.40
2023-02-12T10:12:31.701Z,3.40
2023-02-12T10:15:35.689Z,6.70
2023-02-12T10:18:26.681Z,6.90
2023-02-12T10:21:26.707Z,10.40
2023-02-12T10:24:45.079Z,4.80
2023-02-12T10:27:48.624Z,5.30
2023-02-12T10:30:45.713Z,7.50
2023-02-12T10:34:03.682Z,6.80
2023-02-12T10:36:42.837Z,5.30
2023-02-12T10:39:43.877Z,7.40
2023-02-12T10:42:44.720Z,5.70
2023-02-12T10:45:40.036Z,6.90
2023-02-12T10:48:32.755Z,4.60
2023-02-12T10:51:16.914Z,5.60
2023-02-12T10:53:58.877Z,5.00
2023-02-12T10:56:44.835Z,3.20
2023-02-12T10:59:31.615Z,7.00
2023-02-12T11:02:41.683Z,3.60
2023-02-12T11:05:25.955Z,3.50
2023-02-12T11:08:13.817Z,4.20
2023-02-12T11:10:58.811Z,3.90
2023-02-12T11:13:40.800Z,4.90
2023-02-12T11:16:21.917Z,4.60
2023-02-12T11:19:27.730Z,4.90
2023-02-12T11:22:16.697Z,4.60
2023-02-12T11:24:54.921Z,5.00
2023-02-12T11:27:43.951Z,3.50
2023-02-12T11:30:29.937Z,7.00
2023-02-12T11:33:55.675Z,5.50
2023-02-12T11:36:47.765Z,7.00
2023-02-12T11:39:23.485Z,14.30
2023-02-12T11:42:22.755Z,10.60
2023-02-12T11:44:58.623Z,6.90
2023-02-12T11:47:48.646Z,9.90
2023-02-12T11:50:27.371Z,4.90
2023-02-12T11:53:23.711Z,11.20
2023-02-12T11:56:15.305Z,8.40
2023-02-12T11:59:05.771Z,5.70
2023-02-12T12:02:00.909Z,5.30
2023-02-12T12:04:49.667Z,3.10
2023-02-12T12:07:37.762Z,4.50
2023-02-12T12:10:55.649Z,2.20
2023-02-12T12:13:37.498Z,4.20
2023-02-12T12:16:56.859Z,5.30
2023-02-12T12:20:01.739Z,4.60
2023-02-12T12:23:38.495Z,11.60
2023-02-12T12:26:29.982Z,15.60
2023-02-12T12:29:30.670Z,14.40
2023-02-12T12:32:05.656Z,10.20
2023-02-12T12:34:56.008Z,28.00
2023-02-12T12:37:48.828Z,7.20
2023-02-12T12:41:20.679Z,7.50
2023-02-12T12:44:12.312Z,4.60
2023-02-12T12:47:12.797Z,6.00
2023-02-12T12:50:25.728Z,7.70
2023-02-12T12:53:26.768Z,5.70
2023-02-12T12:56:16.879Z,10.10
2023-02-12T12:59:02.191Z,8.50
2023-02-12T13:01:58.709Z,9.50
2023-02-12T13:05:10.645Z,7.20
2023-02-12T13:07:50.770Z,5.30
2023-02-12T13:10:54.637Z,12.90
2023-02-12T13:13:51.653Z,11.90
2023-02-12T13:17:07.681Z,12.80
2023-02-12T13:20:11.872Z,5.20
2023-02-12T13:23:02.649Z,11.10
2023-02-12T13:25:40.797Z,6.60
2023-02-12T13:28:42.664Z,8.20
2023-02-12T13:31:33.117Z,6.40
2023-02-12T13:34:22.932Z,8.40
2023-02-12T13:37:07.821Z,9.60
2023-02-12T13:39:50.649Z,13.40
2023-02-12T13:42:34.966Z,12.20
2023-02-12T13:46:14.686Z,17.60
2023-02-12T13:48:55.764Z,11.40
2023-02-12T13:51:50.721Z,9.60
2023-02-12T13:54:51.006Z,9.90
2023-02-12T13:57:32.859Z,14.20
2023-02-12T14:00:51.783Z,10.70
2023-02-12T14:03:34.670Z,22.30
2023-02-12T14:06:25.820Z,11.50
2023-02-12T14:09:17.740Z,11.70
2023-02-12T14:12:07.663Z,7.90
2023-02-12T14:14:50.663Z,10.40
2023-02-12T14:17:34.755Z,9.20
2023-02-12T14:20:34.653Z,11.20
2023-02-12T14:23:42.635Z,10.70
2023-02-12T14:26:18.550Z,22.90
2023-02-12T14:29:08.683Z,26.60
2023-02-12T14:31:51.027Z,13.70
2023-02-12T14:34:42.816Z,13.00
2023-02-12T14:37:24.657Z,10.40
2023-02-12T14:40:50.662Z,11.70
2023-02-12T14:43:27.869Z,9.70
2023-02-12T14:46:37.729Z,10.70
2023-02-12T14:49:44.632Z,7.50
2023-02-12T14:52:18.768Z,9.60
2023-02-12T14:55:12.625Z,9.20
2023-02-12T14:57:55.643Z,12.70
2023-02-12T15:00:56.255Z,13.10
2023-02-12T15:03:44.662Z,13.20
2023-02-12T15:06:27.852Z,11.40
2023-02-12T15:09:23.680Z,14.10
2023-02-12T15:12:38.785Z,18.50
2023-02-12T15:15:26.720Z,19.90
2023-02-12T15:18:18.716Z,14.90
2023-02-12T15:21:32.641Z,18.50
2023-02-12T15:24:30.716Z,15.90
2023-02-12T15:27:13.635Z,16.30
2023-02-12T15:30:01.667Z,13.20
2023-02-12T15:32:37.757Z,17.90
2023-02-12T15:35:35.644Z,14.30
2023-02-12T15:38:11.860Z,12.50
2023-02-12T15:41:01.939Z,13.80
2023-02-12T15:43:38.772Z,11.20
2023-02-12T15:46:26.865Z,17.30
2023-02-12T15:49:08.859Z,58.60
2023-02-12T15:52:03.809Z,29.20
2023-02-12T15:54:55.827Z,20.60
2023-02-12T15:57:40.919Z,29.60
2023-02-12T16:00:49.621Z,16.60
2023-02-12T16:03:49.760Z,13.20
2023-02-12T16:06:25.799Z,10.90
2023-02-12T16:09:45.886Z,11.90
2023-02-12T16:12:30.696Z,18.80
2023-02-12T16:15:18.682Z,17.30
2023-02-12T16:17:59.936Z,19.40
2023-02-12T16:20:43.947Z,17.50
2023-02-12T16:23:32.778Z,18.40
2023-02-12T16:26:13.749Z,18.40
2023-02-12T16:28:55.653Z,17.70
2023-02-12T16:31:43.957Z,19.20
2023-02-12T16:34:37.580Z,15.80
2023-02-12T16:37:50.628Z,14.00
2023-02-12T16:40:40.617Z,18.10
2023-02-12T16:43:33.931Z,18.20
2023-02-12T16:46:15.766Z,18.40
2023-02-12T16:48:59.369Z,17.20
2023-02-12T16:51:47.734Z,19.60
2023-02-12T16:54:42.913Z,19.50
2023-02-12T16:57:30.712Z,18.60
2023-02-12T17:00:08.490Z,23.60
2023-02-12T17:02:56.701Z,31.30
2023-02-12T17:05:31.784Z,26.50
2023-02-12T17:08:28.632Z,24.80
2023-02-12T17:11:05.238Z,21.10
2023-02-12T17:13:57.739Z,23.20
2023-02-12T17:16:32.792Z,22.60
2023-02-12T17:19:20.609Z,24.70
2023-02-12T17:21:55.778Z,28.70
2023-02-12T17:24:43.624Z,31.40
2023-02-12T17:27:25.637Z,29.90
2023-02-12T17:30:14.614Z,25.60
2023-02-12T17:32:56.705Z,22.80
2023-02-12T17:35:52.618Z,30.10
2023-02-12T17:38:40.852Z,34.40
2023-02-12T17:41:18.819Z,38.40
2023-02-12T17:44:06.849Z,42.80
2023-02-12T17:46:42.128Z,34.10
2023-02-12T17:49:29.626Z,41.50
2023-02-12T17:52:11.606Z,40.80
2023-02-12T17:55:00.218Z,35.40
2023-02-12T17:57:34.736Z,44.30
2023-02-12T18:00:23.641Z,41.20
2023-02-12T18:03:00.757Z,38.80
2023-02-12T18:05:51.861Z,39.60
2023-02-12T18:08:27.825Z,39.00
2023-02-12T18:11:27.123Z,41.10
2023-02-12T18:14:14.764Z,39.40
2023-02-12T18:16:58.926Z,37.70
2023-02-12T18:19:54.623Z,44.10
2023-02-12T18:22:42.612Z,31.90
2023-02-12T18:25:18.732Z,80.80
2023-02-12T18:28:07.654Z,73.90
2023-02-12T18:30:51.174Z,73.90
2023-02-12T18:33:47.559Z,44.20
2023-02-12T18:36:35.619Z,35.20
2023-02-12T18:39:10.766Z,32.80
2023-02-12T18:41:53.797Z,32.60
2023-02-12T18:44:34.868Z,39.90
2023-02-12T18:47:19.502Z,42.20
2023-02-12T18:50:08.715Z,65.90
2023-02-12T18:53:04.863Z,67.90
2023-02-12T18:55:53.645Z,90.30
2023-02-12T18:58:28.765Z,62.60
2023-02-12T19:01:25.759Z,58.50
2023-02-12T19:04:08.250Z,66.20
2023-02-12T19:06:58.685Z,48.10
2023-02-12T19:09:41.618Z,48.50
2023-02-12T19:12:30.322Z,51.00
2023-02-12T19:15:13.619Z,42.70
2023-02-12T19:17:55.934Z,42.90
2023-02-12T19:20:36.603Z,40.80
2023-02-12T19:23:17.746Z,44.10
2023-02-12T19:25:58.604Z,36.20
2023-02-12T19:31:35.807Z,39.80
2023-02-12T19:34:27.602Z,39.60
2023-02-12T19:37:02.729Z,29.00
2023-02-12T19:39:55.889Z,26.00
2023-02-12T19:42:31.225Z,32.90
2023-02-12T19:45:21.782Z,36.60
2023-02-12T19:47:57.243Z,30.70
2023-02-12T19:50:52.623Z,38.10
2023-02-12T19:53:28.192Z,43.00
2023-02-12T19:56:17.755Z,39.20
2023-02-12T19:58:53.808Z,40.90
2023-02-12T20:04:22.732Z,41.40
2023-02-12T20:07:15.625Z,37.40
2023-02-12T20:09:58.032Z,39.20
2023-02-12T20:12:52.728Z,28.20
2023-02-12T20:15:44.607Z,34.30
2023-02-12T20:18:27.594Z,26.00
2023-02-12T20:21:24.703Z,23.60
2023-02-12T20:24:13.618Z,22.30
2023-02-12T20:26:55.584Z,29.70
2023-02-12T20:29:50.605Z,27.60
2023-02-12T20:32:40.687Z,22.30
2023-02-12T20:35:15.720Z,28.50
2023-02-12T20:38:03.747Z,28.40
2023-02-12T20:40:46.769Z,19.00
2023-02-12T20:43:43.781Z,22.10
2023-02-12T20:46:32.281Z,23.30
2023-02-12T20:49:06.792Z,24.90
2023-02-12T20:51:56.670Z,21.80
2023-02-12T20:54:38.578Z,24.90
2023-02-12T20:57:30.243Z,27.80
2023-02-12T21:00:05.096Z,28.30
2023-02-12T21:02:53.706Z,25.90
2023-02-12T21:05:29.155Z,24.00
2023-02-12T21:08:17.637Z,23.60
2023-02-12T21:10:59.587Z,29.00
2023-02-12T21:14:02.247Z,27.30
2023-02-12T21:16:49.761Z,29.20
2023-02-12T21:19:44.553Z,29.50
2023-02-12T21:22:32.558Z,29.00
2023-02-12T21:25:13.731Z,27.30
2023-02-12T21:27:54.594Z,36.30
2023-02-12T21:30:35.695Z,37.30
2023-02-12T21:33:16.579Z,35.60
2023-02-12T21:35:57.995Z,33.90
2023-02-12T21:38:41.559Z,33.40
2023-02-12T21:41:33.568Z,38.20
2023-02-12T21:44:14.255Z,33.50
2023-02-12T21:47:04.417Z,40.40
2023-02-12T21:49:45.560Z,35.40
2023-02-12T21:52:26.687Z,33.10
2023-02-12T21:57:49.684Z,37.00
2023-02-12T22:00:33.602Z,34.60
2023-02-12T22:03:23.644Z,38.10
2023-02-12T22:06:03.995Z,37.20
2023-02-12T22:08:51.642Z,41.30
2023-02-12T22:11:33.611Z,40.20
2023-02-12T22:14:22.599Z,39.70
2023-02-12T22:17:10.550Z,35.30
2023-02-12T22:19:45.708Z,33.60
2023-02-12T22:22:33.542Z,32.30
2023-02-12T22:25:08.672Z,32.40
2023-02-12T22:27:56.974Z,40.50
2023-02-12T22:30:31.682Z,31.30
2023-02-12T22:33:19.744Z,29.90
2023-02-12T22:35:55.904Z,37.10
2023-02-12T22:38:45.757Z,37.40
2023-02-12T22:41:28.554Z,34.80
2023-02-12T22:44:25.539Z,33.90
2023-02-12T22:47:20.535Z,35.30
2023-02-12T22:50:08.563Z,32.50
2023-02-12T22:52:43.718Z,34.80
2023-02-12T22:55:31.759Z,31.30
2023-02-12T22:58:06.861Z,32.00
2023-02-12T23:00:56.045Z,32.30
2023-02-12T23:03:31.770Z,34.30
2023-02-12T23:06:24.697Z,32.10
2023-02-12T23:12:02.742Z,30.90
2023-02-12T23:14:58.730Z,31.40
2023-02-12T23:17:47.719Z,36.50
2023-02-12T23:20:22.645Z,38.90
2023-02-12T23:23:10.661Z,36.50
2023-02-12T23:25:54.943Z,37.80
2023-02-12T23:28:37.086Z,37.30
2023-02-12T23:31:25.892Z,41.20
2023-02-12T23:34:08.751Z,36.80
2023-02-12T23:36:50.690Z,35.00
2023-02-12T23:39:32.706Z,34.70
2023-02-12T23:42:14.777Z,35.40
2023-02-12T23:44:56.905Z,32.60
2023-02-12T23:47:45.559Z,41.50
2023-02-12T23:50:20.008Z,34.90
2023-02-12T23:55:46.424Z,34.70
2023-02-12T23:58:36.768Z,35.90
